createdAt,value
2023-02-11T00:00:46.914Z,1024.80
2023-02-11T00:01:47.052Z,1024.78
2023-02-11T00:02:48.035Z,1024.82
2023-02-11T00:03:47.045Z,1024.77
2023-02-11T00:04:46.892Z,1024.80
2023-02-11T00:05:46.884Z,1024.77
2023-02-11T00:06:46.886Z,1024.81
2023-02-11T00:07:46.877Z,1024.75
2023-02-11T00:08:46.877Z,1024.79
2023-02-11T00:09:46.866Z,1024.72
2023-02-11T00:10:46.868Z,1024.71
2023-02-11T00:11:46.862Z,1024.71
2023-02-11T00:12:46.857Z,1024.72
2023-02-11T00:13:46.849Z,1024.68
2023-02-11T00:14:46.850Z,1024.70
2023-02-11T00:15:46.983Z,1024.75
2023-02-11T00:16:47.057Z,1024.83
2023-02-11T00:17:46.823Z,1024.87
2023-02-11T00:18:46.826Z,1024.88
2023-02-11T00:19:46.813Z,1024.90
2023-02-11T00:20:46.813Z,1024.85
2023-02-11T00:21:46.806Z,1024.93
2023-02-11T00:22:46.811Z,1025.00
2023-02-11T00:23:46.793Z,1025.09
2023-02-11T00:24:46.830Z,1025.13
2023-02-11T00:25:46.791Z,1025.11
2023-02-11T00:26:46.788Z,1025.11
2023-02-11T00:27:46.774Z,1025.08
2023-02-11T00:28:46.772Z,1025.13
2023-02-11T00:29:46.763Z,1025.14
2023-02-11T00:30:46.910Z,1025.08
2023-02-11T00:31:46.854Z,1025.01
2023-02-11T00:32:46.748Z,1025.01
2023-02-11T00:33:46.741Z,1024.94
2023-02-11T00:34:46.740Z,1024.88
2023-02-11T00:35:46.730Z,1024.89
2023-02-11T00:36:46.740Z,1024.77
2023-02-11T00:37:46.723Z,1024.70
2023-02-11T00:38:46.725Z,1024.68
2023-02-11T00:39:46.717Z,1024.69
2023-02-11T00:40:46.707Z,1024.76
2023-02-11T00:41:46.703Z,1024.73
2023-02-11T00:42:46.706Z,1024.77
2023-02-11T00:43:46.690Z,1024.81
2023-02-11T00:44:46.683Z,1024.84
2023-02-11T00:45:46.708Z,1024.82
2023-02-11T00:46:46.707Z,1024.80
2023-02-11T00:47:46.700Z,1024.78
2023-02-11T00:48:46.662Z,1024.81
2023-02-11T00:49:46.653Z,1024.81
2023-02-11T00:50:46.657Z,1024.74
2023-02-11T00:51:46.648Z,1024.70
2023-02-11T00:52:46.651Z,1024.71
2023-02-11T00:53:46.636Z,1024.73
2023-02-11T00:54:46.634Z,1024.72
2023-02-11T00:55:46.624Z,1024.77
2023-02-11T00:56:46.626Z,1024.74
2023-02-11T00:57:46.614Z,1024.74
2023-02-11T00:58:46.611Z,1024.71
2023-02-11T00:59:46.603Z,1024.74
2023-02-11T01:00:46.650Z,1024.70
2023-02-11T01:01:46.684Z,1024.68
2023-02-11T01:02:46.596Z,1024.71
2023-02-11T01:03:46.615Z,1024.71
2023-02-11T01:04:46.591Z,1024.69
2023-02-11T01:05:46.582Z,1024.71
2023-02-11T01:06:46.582Z,1024.61
2023-02-11T01:07:46.581Z,1024.57
2023-02-11T01:08:46.567Z,1024.53
2023-02-11T01:09:46.567Z,1024.50
2023-02-11T01:10:46.564Z,1024.44
2023-02-11T01:11:46.555Z,1024.36
2023-02-11T01:12:46.547Z,1024.33
2023-02-11T01:13:46.551Z,1024.27
2023-02-11T01:14:46.542Z,1024.23
2023-02-11T01:15:46.544Z,1024.24
2023-02-11T01:16:46.526Z,1024.22
2023-02-11T01:17:46.530Z,1024.22
2023-02-11T01:18:46.555Z,1024.19
2023-02-11T01:19:46.535Z,1024.20
2023-02-11T01:20:46.513Z,1024.19
2023-02-11T01:21:46.502Z,1024.10
2023-02-11T01:22:46.516Z,1024.08
2023-02-11T01:23:46.487Z,1024.08
2023-02-11T01:24:46.489Z,1024.08
2023-02-11T01:25:46.486Z,1024.09
2023-02-11T01:26:46.497Z,1024.04
2023-02-11T01:27:46.476Z,1023.96
2023-02-11T01:28:46.476Z,1023.98
2023-02-11T01:29:46.462Z,1024.02
2023-02-11T01:30:46.567Z,1024.03
2023-02-11T01:31:46.505Z,1024.08
2023-02-11T01:32:46.506Z,1024.08
2023-02-11T01:33:46.442Z,1024.12
2023-02-11T01:34:46.446Z,1024.06
2023-02-11T01:35:46.477Z,1024.11
2023-02-11T01:36:46.428Z,1024.01
2023-02-11T01:37:46.428Z,1023.97
2023-02-11T01:38:46.423Z,1023.95
2023-02-11T01:39:46.416Z,1023.93
2023-02-11T01:40:46.422Z,1023.93
2023-02-11T01:41:46.400Z,1023.96
2023-02-11T01:42:46.398Z,1024.06
2023-02-11T01:43:46.405Z,1024.02
2023-02-11T01:44:46.394Z,1024.05
2023-02-11T01:45:46.390Z,1024.02
2023-02-11T01:46:46.488Z,1024.09
2023-02-11T01:47:46.394Z,1024.13
2023-02-11T01:48:46.387Z,1024.09
2023-02-11T01:49:46.371Z,1023.98
2023-02-11T01:50:46.371Z,1024.01
2023-02-11T01:51:46.374Z,1024.04
2023-02-11T01:52:46.347Z,1023.99
2023-02-11T01:53:46.349Z,1023.94
2023-02-11T01:54:46.340Z,1023.91
2023-02-11T01:55:46.335Z,1023.89
2023-02-11T01:56:46.330Z,1023.90
2023-02-11T01:57:46.329Z,1023.84
2023-02-11T01:58:46.320Z,1023.81
2023-02-11T01:59:46.314Z,1023.88
2023-02-11T02:00:46.360Z,1023.86
2023-02-11T02:01:46.390Z,1023.87
2023-02-11T02:02:46.302Z,1023.83
2023-02-11T02:03:46.395Z,1023.86
2023-02-11T02:04:46.293Z,1023.91
2023-02-11T02:05:46.289Z,1023.94
2023-02-11T02:06:46.280Z,1023.95
2023-02-11T02:07:46.295Z,1023.95
2023-02-11T02:08:46.277Z,1024.01
2023-02-11T02:09:46.274Z,1023.98
2023-02-11T02:10:46.290Z,1023.92
2023-02-11T02:11:46.262Z,1023.90
2023-02-11T02:12:46.266Z,1023.90
2023-02-11T02:13:46.248Z,1023.86
2023-02-11T02:14:46.256Z,1023.90
2023-02-11T02:15:46.294Z,1023.86
2023-02-11T02:16:46.228Z,1023.88
2023-02-11T02:17:46.235Z,1023.83
2023-02-11T02:18:46.217Z,1023.89
2023-02-11T02:19:46.226Z,1023.90
2023-02-11T02:20:46.216Z,1023.87
2023-02-11T02:21:46.213Z,1023.90
2023-02-11T02:22:46.199Z,1023.87
2023-02-11T02:23:46.222Z,1023.90
2023-02-11T02:24:46.187Z,1023.93
2023-02-11T02:25:46.183Z,1023.90
2023-02-11T02:26:46.183Z,1023.83
2023-02-11T02:27:46.178Z,1023.81
2023-02-11T02:28:46.173Z,1023.71
2023-02-11T02:29:46.168Z,1023.64
2023-02-11T02:30:46.186Z,1023.67
2023-02-11T02:31:46.217Z,1023.61
2023-02-11T02:32:46.154Z,1023.56
2023-02-11T02:33:46.149Z,1023.55
2023-02-11T02:34:46.139Z,1023.58
2023-02-11T02:35:46.136Z,1023.59
2023-02-11T02:36:46.129Z,1023.59
2023-02-11T02:37:46.124Z,1023.56
2023-02-11T02:38:46.124Z,1023.57
2023-02-11T02:39:46.135Z,1023.54
2023-02-11T02:40:46.106Z,1023.58
2023-02-11T02:41:46.121Z,1023.54
2023-02-11T02:42:46.101Z,1023.56
2023-02-11T02:43:46.094Z,1023.51
2023-02-11T02:44:46.089Z,1023.48
2023-02-11T02:45:46.088Z,1023.48
2023-02-11T02:46:46.153Z,1023.48
2023-02-11T02:47:46.077Z,1023.55
2023-02-11T02:48:46.074Z,1023.54
2023-02-11T02:49:46.071Z,1023.56
2023-02-11T02:50:46.060Z,1023.47
2023-02-11T02:51:46.064Z,1023.35
2023-02-11T02:52:46.056Z,1023.27
2023-02-11T02:53:46.057Z,1023.31
2023-02-11T02:54:46.041Z,1023.32
2023-02-11T02:55:46.065Z,1023.28
2023-02-11T02:56:46.034Z,1023.25
2023-02-11T02:57:46.032Z,1023.29
2023-02-11T02:58:47.299Z,1023.36
2023-02-11T02:59:46.024Z,1023.34
2023-02-11T03:00:46.050Z,1023.27
2023-02-11T03:01:46.013Z,1023.29
2023-02-11T03:02:46.004Z,1023.38
2023-02-11T03:03:46.022Z,1023.40
2023-02-11T03:04:46.012Z,1023.35
2023-02-11T03:05:45.997Z,1023.37
2023-02-11T03:06:45.985Z,1023.40
2023-02-11T03:07:46.042Z,1023.41
2023-02-11T03:08:45.983Z,1023.37
2023-02-11T03:09:45.974Z,1023.37
2023-02-11T03:10:45.967Z,1023.27
2023-02-11T03:11:45.997Z,1023.28
2023-02-11T03:12:45.960Z,1023.21
2023-02-11T03:13:45.959Z,1023.20
2023-02-11T03:14:45.958Z,1023.21
2023-02-11T03:15:45.947Z,1023.15
2023-02-11T03:16:45.938Z,1023.18
2023-02-11T03:17:45.940Z,1023.19
2023-02-11T03:18:45.933Z,1023.21
2023-02-11T03:19:45.929Z,1023.17
2023-02-11T03:20:45.923Z,1023.19
2023-02-11T03:21:45.919Z,1023.19
2023-02-11T03:22:45.910Z,1023.22
2023-02-11T03:23:45.912Z,1023.25
2023-02-11T03:24:45.902Z,1023.16
2023-02-11T03:25:45.901Z,1023.20
2023-02-11T03:26:45.895Z,1023.20
2023-02-11T03:27:45.924Z,1023.17
2023-02-11T03:28:45.898Z,1023.18
2023-02-11T03:29:45.886Z,1023.14
2023-02-11T03:30:45.911Z,1023.13
2023-02-11T03:31:45.991Z,1023.14
2023-02-11T03:32:45.865Z,1023.20
2023-02-11T03:33:45.865Z,1023.20
2023-02-11T03:34:45.854Z,1023.19
2023-02-11T03:35:45.858Z,1023.15
2023-02-11T03:36:45.892Z,1023.14
2023-02-11T03:37:45.849Z,1023.14
2023-02-11T03:38:45.839Z,1023.19
2023-02-11T03:39:45.832Z,1023.17
2023-02-11T03:40:45.847Z,1023.19
2023-02-11T03:41:45.824Z,1023.22
2023-02-11T03:42:45.822Z,1023.18
2023-02-11T03:43:46.235Z,1023.20
2023-02-11T03:44:45.808Z,1023.20
2023-02-11T03:45:45.885Z,1023.16
2023-02-11T03:46:45.805Z,1023.18
2023-02-11T03:47:45.797Z,1023.15
2023-02-11T03:48:45.793Z,1023.14
2023-02-11T03:49:45.785Z,1023.17
2023-02-11T03:50:45.788Z,1023.14
2023-02-11T03:51:45.773Z,1023.05
2023-02-11T03:52:45.771Z,1023.04
2023-02-11T03:53:45.771Z,1023.03
2023-02-11T03:54:45.771Z,1023.07
2023-02-11T03:55:45.757Z,1023.07
2023-02-11T03:56:45.752Z,1023.03
2023-02-11T03:57:45.752Z,1023.06
2023-02-11T03:58:45.748Z,1023.02
2023-02-11T03:59:45.766Z,1023.11
2023-02-11T04:00:45.768Z,1023.02
2023-02-11T04:01:45.733Z,1023.02
2023-02-11T04:02:45.810Z,1022.97
2023-02-11T04:03:45.721Z,1023.02
2023-02-11T04:04:45.713Z,1022.98
2023-02-11T04:05:45.724Z,1022.92
2023-02-11T04:06:45.707Z,1022.96
2023-02-11T04:07:45.703Z,1022.95
2023-02-11T04:08:45.698Z,1022.95
2023-02-11T04:09:45.697Z,1023.00
2023-02-11T04:10:45.686Z,1023.02
2023-02-11T04:11:45.691Z,1023.07
2023-02-11T04:12:45.683Z,1023.08
2023-02-11T04:13:45.676Z,1023.08
2023-02-11T04:14:45.672Z,1023.11
2023-02-11T04:15:48.500Z,1023.07
2023-02-11T04:16:45.766Z,1023.08
2023-02-11T04:17:45.656Z,1023.10
2023-02-11T04:18:45.655Z,1023.08
2023-02-11T04:19:45.652Z,1023.08
2023-02-11T04:20:45.647Z,1023.07
2023-02-11T04:21:45.649Z,1023.05
2023-02-11T04:22:45.634Z,1023.08
2023-02-11T04:23:45.634Z,1023.10
2023-02-11T04:24:45.636Z,1023.09
2023-02-11T04:25:45.625Z,1023.09
2023-02-11T04:26:45.614Z,1023.07
2023-02-11T04:27:45.611Z,1023.03
2023-02-11T04:28:45.609Z,1022.95
2023-02-11T04:29:45.607Z,1022.99
2023-02-11T04:30:45.613Z,1022.91
2023-02-11T04:31:45.652Z,1022.98
2023-02-11T04:32:45.590Z,1022.99
2023-02-11T04:33:45.590Z,1022.98
2023-02-11T04:34:45.583Z,1022.94
2023-02-11T04:35:45.596Z,1022.93
2023-02-11T04:36:45.571Z,1022.94
2023-02-11T04:37:45.600Z,1022.92
2023-02-11T04:38:45.562Z,1022.90
2023-02-11T04:39:45.583Z,1022.87
2023-02-11T04:40:45.560Z,1022.92
2023-02-11T04:41:45.552Z,1022.96
2023-02-11T04:42:45.542Z,1022.87
2023-02-11T04:43:45.545Z,1022.85
2023-02-11T04:44:45.535Z,1022.85
2023-02-11T04:45:45.584Z,1022.87
2023-02-11T04:46:45.530Z,1022.83
2023-02-11T04:47:45.553Z,1022.85
2023-02-11T04:48:45.515Z,1022.85
2023-02-11T04:49:45.517Z,1022.86
2023-02-11T04:50:45.514Z,1022.83
2023-02-11T04:51:48.187Z,1022.81
2023-02-11T04:52:45.500Z,1022.78
2023-02-11T04:53:45.506Z,1022.78
2023-02-11T04:54:45.506Z,1022.80
2023-02-11T04:55:45.489Z,1022.78
2023-02-11T04:56:45.485Z,1022.73
2023-02-11T04:57:45.483Z,1022.72
2023-02-11T04:58:45.471Z,1022.69
2023-02-11T04:59:45.473Z,1022.68
2023-02-11T05:00:45.461Z,1022.62
2023-02-11T05:01:45.460Z,1022.64
2023-02-11T05:02:45.451Z,1022.62
2023-02-11T05:03:45.537Z,1022.63
2023-02-11T05:04:45.450Z,1022.65
2023-02-11T05:05:45.454Z,1022.65
2023-02-11T05:06:45.454Z,1022.67
2023-02-11T05:07:45.434Z,1022.67
2023-02-11T05:08:45.465Z,1022.61
2023-02-11T05:09:45.424Z,1022.67
2023-02-11T05:10:45.418Z,1022.61
2023-02-11T05:11:45.414Z,1022.56
2023-02-11T05:12:45.413Z,1022.56
2023-02-11T05:13:45.409Z,1022.45
2023-02-11T05:14:45.397Z,1022.43
2023-02-11T05:15:45.408Z,1022.42
2023-02-11T05:16:45.460Z,1022.34
2023-02-11T05:17:45.391Z,1022.33
2023-02-11T05:18:45.395Z,1022.27
2023-02-11T05:19:45.404Z,1022.20
2023-02-11T05:20:45.381Z,1022.15
2023-02-11T05:22:00.241Z,1022.14
2023-02-11T05:22:45.371Z,1022.09
2023-02-11T05:23:45.372Z,1022.18
2023-02-11T05:24:45.360Z,1022.17
2023-02-11T05:25:45.363Z,1022.17
2023-02-11T05:26:45.347Z,1022.18
2023-02-11T05:27:45.344Z,1022.12
2023-02-11T05:28:45.338Z,1022.11
2023-02-11T05:29:45.349Z,1022.07
2023-02-11T05:30:45.359Z,1022.05
2023-02-11T05:31:45.325Z,1022.06
2023-02-11T05:32:45.322Z,1021.97
2023-02-11T05:33:45.320Z,1022.05
2023-02-11T05:34:45.332Z,1021.98
2023-02-11T05:35:45.333Z,1022.03
2023-02-11T05:36:45.303Z,1021.95
2023-02-11T05:37:45.297Z,1022.11
2023-02-11T05:38:45.307Z,1022.14
2023-02-11T05:39:45.292Z,1022.17
2023-02-11T05:40:45.285Z,1022.14
2023-02-11T05:41:45.282Z,1022.16
2023-02-11T05:42:45.284Z,1022.13
2023-02-11T05:43:45.272Z,1022.10
2023-02-11T05:44:45.271Z,1022.10
2023-02-11T05:45:45.262Z,1022.06
2023-02-11T05:46:45.319Z,1022.06
2023-02-11T05:47:45.261Z,1022.11
2023-02-11T05:48:45.249Z,1022.10
2023-02-11T05:49:45.250Z,1022.11
2023-02-11T05:50:45.283Z,1022.02
2023-02-11T05:51:45.262Z,1022.01
2023-02-11T05:52:45.237Z,1022.01
2023-02-11T05:53:45.244Z,1021.96
2023-02-11T05:54:45.228Z,1021.95
2023-02-11T05:55:45.227Z,1021.98
2023-02-11T05:56:45.212Z,1021.96
2023-02-11T05:57:45.220Z,1021.93
2023-02-11T05:58:45.204Z,1021.94
2023-02-11T05:59:45.204Z,1021.95
2023-02-11T06:00:45.199Z,1021.95
2023-02-11T06:01:45.189Z,1022.06
2023-02-11T06:02:45.266Z,1022.10
2023-02-11T06:03:45.218Z,1022.12
2023-02-11T06:04:45.187Z,1022.11
2023-02-11T06:05:45.184Z,1022.13
2023-02-11T06:06:45.180Z,1022.09
2023-02-11T06:07:45.190Z,1022.04
2023-02-11T06:08:45.166Z,1022.11
2023-02-11T06:09:45.164Z,1022.12
2023-02-11T06:10:45.166Z,1022.11
2023-02-11T06:11:45.147Z,1022.16
2023-02-11T06:12:45.145Z,1022.23
2023-02-11T06:13:45.143Z,1022.21
2023-02-11T06:14:45.135Z,1022.21
2023-02-11T06:15:45.182Z,1022.23
2023-02-11T06:16:45.128Z,1022.21
2023-02-11T06:17:45.124Z,1022.09
2023-02-11T06:18:45.119Z,1022.17
2023-02-11T06:19:45.117Z,1022.20
2023-02-11T06:20:45.120Z,1022.16
2023-02-11T06:21:45.153Z,1022.18
2023-02-11T06:22:45.108Z,1022.18
2023-02-11T06:23:45.121Z,1022.21
2023-02-11T06:25:00.499Z,1022.20
2023-02-11T06:25:45.083Z,1022.15
2023-02-11T06:26:45.086Z,1022.09
2023-02-11T06:27:45.076Z,1022.16
2023-02-11T06:28:45.219Z,1022.12
2023-02-11T06:29:45.066Z,1022.19
2023-02-11T06:30:45.101Z,1022.14
2023-02-11T06:31:45.188Z,1022.24
2023-02-11T06:32:46.044Z,1022.23
2023-02-11T06:33:45.061Z,1022.22
2023-02-11T06:34:45.048Z,1022.21
2023-02-11T06:35:45.059Z,1022.21
2023-02-11T06:36:45.045Z,1022.13
2023-02-11T06:37:45.043Z,1022.12
2023-02-11T06:38:45.043Z,1022.20
2023-02-11T06:39:45.050Z,1022.14
2023-02-11T06:40:45.039Z,1022.12
2023-02-11T06:41:45.020Z,1022.19
2023-02-11T06:42:45.028Z,1022.11
2023-02-11T06:43:45.012Z,1021.99
2023-02-11T06:44:45.019Z,1022.02
2023-02-11T06:45:45.002Z,1022.07
2023-02-11T06:46:45.036Z,1022.07
2023-02-11T06:47:44.995Z,1022.01
2023-02-11T06:48:45.172Z,1022.03
2023-02-11T06:49:44.986Z,1022.01
2023-02-11T06:50:44.988Z,1022.06
2023-02-11T06:51:44.981Z,1022.04
2023-02-11T06:52:44.975Z,1021.99
2023-02-11T06:53:44.975Z,1022.06
2023-02-11T06:54:44.970Z,1021.99
2023-02-11T06:55:45.003Z,1021.94
2023-02-11T06:56:44.959Z,1021.99
2023-02-11T06:57:44.953Z,1021.98
2023-02-11T06:58:44.949Z,1022.00
2023-02-11T06:59:44.947Z,1022.09
2023-02-11T07:00:44.941Z,1021.98
2023-02-11T07:01:45.007Z,1021.99
2023-02-11T07:02:44.965Z,1022.01
2023-02-11T07:03:44.977Z,1022.00
2023-02-11T07:04:44.924Z,1022.04
2023-02-11T07:05:44.919Z,1021.97
2023-02-11T07:06:44.921Z,1022.05
2023-02-11T07:07:44.909Z,1022.00
2023-02-11T07:08:44.911Z,1022.06
2023-02-11T07:09:44.909Z,1022.06
2023-02-11T07:10:44.907Z,1022.11
2023-02-11T07:11:44.918Z,1022.08
2023-02-11T07:12:44.893Z,1022.03
2023-02-11T07:13:44.890Z,1022.02
2023-02-11T07:14:44.881Z,1021.99
2023-02-11T07:15:44.963Z,1022.01
2023-02-11T07:16:44.898Z,1022.00
2023-02-11T07:17:44.868Z,1021.95
2023-02-11T07:18:44.866Z,1022.03
2023-02-11T07:19:44.870Z,1021.93
2023-02-11T07:20:44.860Z,1021.94
2023-02-11T07:21:44.850Z,1021.91
2023-02-11T07:22:44.848Z,1021.87
2023-02-11T07:23:44.833Z,1021.94
2023-02-11T07:24:44.839Z,1021.99
2023-02-11T07:25:44.830Z,1021.89
2023-02-11T07:26:44.834Z,1021.88
2023-02-11T07:27:44.848Z,1021.87
2023-02-11T07:28:44.830Z,1021.87
2023-02-11T07:29:44.815Z,1021.90
2023-02-11T07:30:44.861Z,1021.95
2023-02-11T07:31:44.963Z,1021.82
2023-02-11T07:32:44.815Z,1021.87
2023-02-11T07:33:44.807Z,1021.84
2023-02-11T07:34:44.866Z,1021.85
2023-02-11T07:35:44.797Z,1021.86
2023-02-11T07:36:44.798Z,1021.82
2023-02-11T07:37:44.781Z,1021.79
2023-02-11T07:38:44.782Z,1021.80
2023-02-11T07:39:44.775Z,1021.81
2023-02-11T07:40:44.769Z,1021.80
2023-02-11T07:41:44.764Z,1021.77
2023-02-11T07:42:44.765Z,1021.68
2023-02-11T07:43:44.783Z,1021.67
2023-02-11T07:44:44.755Z,1021.73
2023-02-11T07:45:44.747Z,1021.72
2023-02-11T07:46:44.882Z,1021.75
2023-02-11T07:47:44.743Z,1021.69
2023-02-11T07:48:44.744Z,1021.79
2023-02-11T07:49:44.732Z,1021.76
2023-02-11T07:50:44.731Z,1021.78
2023-02-11T07:51:44.723Z,1021.77
2023-02-11T07:52:44.726Z,1021.76
2023-02-11T07:53:44.737Z,1021.77
2023-02-11T07:54:44.721Z,1021.81
2023-02-11T07:55:44.705Z,1021.80
2023-02-11T07:56:44.703Z,1021.77
2023-02-11T07:57:44.699Z,1021.70
2023-02-11T07:58:44.695Z,1021.71
2023-02-11T07:59:44.708Z,1021.65
2023-02-11T08:00:44.731Z,1021.75
2023-02-11T08:01:44.821Z,1021.76
2023-02-11T08:02:44.699Z,1021.78
2023-02-11T08:03:44.678Z,1021.73
2023-02-11T08:04:44.675Z,1021.73
2023-02-11T08:05:44.662Z,1021.68
2023-02-11T08:06:44.668Z,1021.75
2023-02-11T08:07:44.690Z,1021.78
2023-02-11T08:08:44.668Z,1021.81
2023-02-11T08:09:44.651Z,1021.86
2023-02-11T08:10:44.650Z,1021.98
2023-02-11T08:11:44.641Z,1022.00
2023-02-11T08:12:44.642Z,1022.02
2023-02-11T08:13:44.631Z,1021.97
2023-02-11T08:14:44.630Z,1022.01
2023-02-11T08:15:44.651Z,1022.04
2023-02-11T08:16:44.666Z,1022.03
2023-02-11T08:17:44.614Z,1022.08
2023-02-11T08:18:44.612Z,1022.04
2023-02-11T08:19:44.612Z,1022.09
2023-02-11T08:20:44.607Z,1022.14
2023-02-11T08:21:44.600Z,1022.11
2023-02-11T08:22:44.596Z,1022.05
2023-02-11T08:23:44.588Z,1022.05
2023-02-11T08:24:44.597Z,1022.09
2023-02-11T08:25:44.588Z,1022.21
2023-02-11T08:26:44.581Z,1022.15
2023-02-11T08:27:44.572Z,1022.17
2023-02-11T08:28:44.598Z,1022.14
2023-02-11T08:29:44.569Z,1022.07
2023-02-11T08:30:44.587Z,1022.04
2023-02-11T08:31:44.733Z,1022.07
2023-02-11T08:32:44.563Z,1022.06
2023-02-11T08:33:44.555Z,1022.05
2023-02-11T08:34:44.553Z,1022.08
2023-02-11T08:35:44.539Z,1021.97
2023-02-11T08:36:44.539Z,1022.05
2023-02-11T08:37:44.535Z,1022.14
2023-02-11T08:38:44.531Z,1022.04
2023-02-11T08:39:44.527Z,1022.13
2023-02-11T08:40:44.522Z,1022.19
2023-02-11T08:41:44.518Z,1022.23
2023-02-11T08:42:44.515Z,1022.28
2023-02-11T08:43:44.510Z,1022.21
2023-02-11T08:44:44.509Z,1022.24
2023-02-11T08:45:44.538Z,1022.29
2023-02-11T08:46:44.499Z,1022.25
2023-02-11T08:47:44.512Z,1022.22
2023-02-11T08:48:44.493Z,1022.07
2023-02-11T08:49:44.499Z,1022.09
2023-02-11T08:50:44.503Z,1022.01
2023-02-11T08:51:44.481Z,1022.01
2023-02-11T08:52:44.487Z,1021.98
2023-02-11T08:53:44.471Z,1021.95
2023-02-11T08:54:44.475Z,1021.88
2023-02-11T08:55:44.476Z,1021.84
2023-02-11T08:56:44.463Z,1021.86
2023-02-11T08:57:44.456Z,1021.84
2023-02-11T08:58:44.458Z,1021.85
2023-02-11T08:59:44.455Z,1021.84
2023-02-11T09:00:44.457Z,1021.81
2023-02-11T09:01:44.832Z,1021.79
2023-02-11T09:02:44.503Z,1021.74
2023-02-11T09:03:44.472Z,1021.85
2023-02-11T09:04:44.438Z,1021.86
2023-02-11T09:05:44.430Z,1021.96
2023-02-11T09:06:44.438Z,1021.89
2023-02-11T09:07:44.419Z,1021.88
2023-02-11T09:08:46.357Z,1021.95
2023-02-11T09:09:44.421Z,1021.92
2023-02-11T09:10:44.415Z,1021.92
2023-02-11T09:11:44.418Z,1021.96
2023-02-11T09:12:44.406Z,1021.96
2023-02-11T09:13:44.394Z,1021.94
2023-02-11T09:14:44.397Z,1021.99
2023-02-11T09:15:44.387Z,1021.93
2023-02-11T09:16:44.440Z,1021.99
2023-02-11T09:17:44.385Z,1021.91
2023-02-11T09:18:44.404Z,1021.91
2023-02-11T09:19:44.397Z,1021.83
2023-02-11T09:20:44.372Z,1021.85
2023-02-11T09:21:44.374Z,1021.90
2023-02-11T09:22:44.368Z,1021.94
2023-02-11T09:23:44.366Z,1021.91
2023-02-11T09:24:44.367Z,1022.05
2023-02-11T09:25:44.360Z,1022.09
2023-02-11T09:26:44.374Z,1022.07
2023-02-11T09:27:44.370Z,1022.18
2023-02-11T09:28:44.358Z,1022.26
2023-02-11T09:29:44.341Z,1022.27
2023-02-11T09:30:44.420Z,1022.27
2023-02-11T09:31:44.477Z,1022.14
2023-02-11T09:32:44.333Z,1022.07
2023-02-11T09:33:44.324Z,1022.15
2023-02-11T09:34:44.333Z,1022.24
2023-02-11T09:35:44.341Z,1022.29
2023-02-11T09:37:44.326Z,1022.25
2023-02-11T09:38:44.318Z,1022.26
2023-02-11T09:39:44.308Z,1022.32
2023-02-11T09:40:44.299Z,1022.30
2023-02-11T09:41:44.297Z,1022.36
2023-02-11T09:42:44.292Z,1022.37
2023-02-11T09:43:44.294Z,1022.33
2023-02-11T09:44:44.286Z,1022.33
2023-02-11T09:45:44.318Z,1022.40
2023-02-11T09:46:44.289Z,1022.39
2023-02-11T09:47:44.273Z,1022.43
2023-02-11T09:48:44.282Z,1022.43
2023-02-11T09:49:44.273Z,1022.42
2023-02-11T09:50:44.269Z,1022.50
2023-02-11T09:51:44.280Z,1022.49
2023-02-11T09:52:44.259Z,1022.40
2023-02-11T09:53:44.253Z,1022.44
2023-02-11T09:54:44.254Z,1022.51
2023-02-11T09:55:44.244Z,1022.54
2023-02-11T09:56:44.245Z,1022.53
2023-02-11T09:57:44.235Z,1022.59
2023-02-11T09:58:44.259Z,1022.60
2023-02-11T09:59:44.241Z,1022.59
2023-02-11T10:00:44.235Z,1022.62
2023-02-11T10:01:44.269Z,1022.57
2023-02-11T10:02:44.230Z,1022.54
2023-02-11T10:03:44.220Z,1022.49
2023-02-11T10:04:44.277Z,1022.55
2023-02-11T10:05:44.212Z,1022.52
2023-02-11T10:06:44.215Z,1022.57
2023-02-11T10:07:44.226Z,1022.59
2023-02-11T10:08:44.223Z,1022.63
2023-02-11T10:09:44.201Z,1022.65
2023-02-11T10:10:44.204Z,1022.63
2023-02-11T10:11:44.195Z,1022.66
2023-02-11T10:12:44.197Z,1022.75
2023-02-11T10:13:44.202Z,1022.70
2023-02-11T10:14:44.196Z,1022.72
2023-02-11T10:15:44.208Z,1022.72
2023-02-11T10:16:44.177Z,1022.67
2023-02-11T10:17:44.180Z,1022.70
2023-02-11T10:18:44.265Z,1022.68
2023-02-11T10:19:44.186Z,1022.64
2023-02-11T10:20:44.161Z,1022.69
2023-02-11T10:21:44.162Z,1022.66
2023-02-11T10:22:44.168Z,1022.72
2023-02-11T10:23:44.176Z,1022.73
2023-02-11T10:24:44.148Z,1022.82
2023-02-11T10:25:45.392Z,1022.75
2023-02-11T10:26:44.145Z,1022.71
2023-02-11T10:27:44.139Z,1022.75
2023-02-11T10:28:44.473Z,1022.80
2023-02-11T10:29:44.135Z,1022.78
2023-02-11T10:30:44.242Z,1022.79
2023-02-11T10:31:44.204Z,1022.73
2023-02-11T10:32:44.122Z,1022.68
2023-02-11T10:33:44.132Z,1022.62
2023-02-11T10:34:44.111Z,1022.63
2023-02-11T10:35:44.121Z,1022.63
2023-02-11T10:36:44.111Z,1022.64
2023-02-11T10:37:44.694Z,1022.58
2023-02-11T10:38:44.103Z,1022.63
2023-02-11T10:39:44.121Z,1022.62
2023-02-11T10:40:44.103Z,1022.53
2023-02-11T10:41:44.096Z,1022.55
2023-02-11T10:42:44.086Z,1022.52
2023-02-11T10:43:44.088Z,1022.46
2023-02-11T10:44:44.107Z,1022.43
2023-02-11T10:45:44.102Z,1022.36
2023-02-11T10:46:44.162Z,1022.40
2023-02-11T10:47:44.075Z,1022.35
2023-02-11T10:48:44.188Z,1022.38
2023-02-11T10:49:44.085Z,1022.35
2023-02-11T10:50:44.066Z,1022.38
2023-02-11T10:51:44.115Z,1022.34
2023-02-11T10:52:44.050Z,1022.27
2023-02-11T10:53:44.057Z,1022.30
2023-02-11T10:54:44.050Z,1022.29
2023-02-11T10:55:44.074Z,1022.31
2023-02-11T10:56:44.043Z,1022.31
2023-02-11T10:57:44.051Z,1022.28
2023-02-11T10:58:44.040Z,1022.33
2023-02-11T10:59:44.049Z,1022.32
2023-02-11T11:00:44.028Z,1022.23
2023-02-11T11:01:44.095Z,1022.29
2023-02-11T11:02:44.048Z,1022.21
2023-02-11T11:03:44.058Z,1022.17
2023-02-11T11:04:44.107Z,1022.13
2023-02-11T11:05:44.020Z,1022.08
2023-02-11T11:06:44.013Z,1022.12
2023-02-11T11:07:44.014Z,1022.05
2023-02-11T11:08:44.001Z,1022.03
2023-02-11T11:09:44.012Z,1022.06
2023-02-11T11:10:44.051Z,1022.07
2023-02-11T11:11:44.023Z,1022.08
2023-02-11T11:12:43.996Z,1022.11
2023-02-11T11:13:43.991Z,1022.05
2023-02-11T11:14:43.983Z,1022.13
2023-02-11T11:15:44.000Z,1022.07
2023-02-11T11:16:43.976Z,1022.10
2023-02-11T11:17:43.982Z,1022.16
2023-02-11T11:18:43.981Z,1022.14
2023-02-11T11:19:43.986Z,1022.12
2023-02-11T11:20:43.966Z,1022.09
2023-02-11T11:21:43.966Z,1021.99
2023-02-11T11:22:43.956Z,1022.11
2023-02-11T11:23:43.957Z,1022.06
2023-02-11T11:24:43.981Z,1022.09
2023-02-11T11:25:43.947Z,1022.06
2023-02-11T11:26:43.949Z,1022.02
2023-02-11T11:27:43.969Z,1022.08
2023-02-11T11:28:43.953Z,1021.99
2023-02-11T11:29:43.937Z,1021.99
2023-02-11T11:30:44.001Z,1022.00
2023-02-11T11:31:43.960Z,1022.03
2023-02-11T11:32:43.929Z,1022.02
2023-02-11T11:33:43.939Z,1022.11
2023-02-11T11:34:43.920Z,1022.07
2023-02-11T11:35:43.924Z,1022.14
2023-02-11T11:36:43.911Z,1022.17
2023-02-11T11:37:43.910Z,1022.19
2023-02-11T11:38:43.909Z,1022.27
2023-02-11T11:39:43.898Z,1022.25
2023-02-11T11:40:43.894Z,1022.15
2023-02-11T11:41:43.910Z,1022.19
2023-02-11T11:42:43.906Z,1022.18
2023-02-11T11:43:43.912Z,1022.14
2023-02-11T11:44:43.876Z,1022.07
2023-02-11T11:45:43.877Z,1022.14
2023-02-11T11:46:43.970Z,1022.04
2023-02-11T11:47:43.875Z,1022.12
2023-02-11T11:48:43.864Z,1022.06
2023-02-11T11:49:43.877Z,1022.11
2023-02-11T11:50:43.857Z,1022.10
2023-02-11T11:51:43.862Z,1022.08
2023-02-11T11:52:43.863Z,1022.16
2023-02-11T11:53:43.877Z,1022.15
2023-02-11T11:54:43.859Z,1022.10
2023-02-11T11:55:43.874Z,1022.13
2023-02-11T11:56:43.857Z,1022.20
2023-02-11T11:57:43.857Z,1022.14
2023-02-11T11:58:43.836Z,1022.03
2023-02-11T11:59:43.856Z,1022.05
2023-02-11T12:00:43.848Z,1022.12
2023-02-11T12:01:43.881Z,1022.03
2023-02-11T12:02:43.837Z,1022.09
2023-02-11T12:03:43.843Z,1022.09
2023-02-11T12:04:43.820Z,1022.11
2023-02-11T12:05:43.826Z,1022.17
2023-02-11T12:06:43.832Z,1022.23